createdAt,value
2023-08-12T00:00:08.544Z,95280.00
2023-08-12T00:01:08.631Z,95278.00
2023-08-12T00:02:08.549Z,95284.00
2023-08-12T00:03:08.578Z,95282.00
2023-08-12T00:04:08.563Z,95282.00
2023-08-12T00:05:08.549Z,95282.00
2023-08-12T00:06:08.547Z,95282.00
2023-08-12T00:07:08.848Z,95280.00
2023-08-12T00:08:08.558Z,95280.00
2023-08-12T00:09:08.556Z,95280.00
2023-08-12T00:10:08.540Z,95278.00
2023-08-12T00:11:08.571Z,95276.00
2023-08-12T00:12:08.582Z,95274.00
2023-08-12T00:13:08.569Z,95276.00
2023-08-12T00:14:08.567Z,95274.00
2023-08-12T00:15:08.567Z,95272.00
2023-08-12T00:16:08.635Z,95270.00
2023-08-12T00:17:08.626Z,95270.00
2023-08-12T00:18:08.617Z,95268.00
2023-08-12T00:19:08.690Z,95270.00
2023-08-12T00:20:08.635Z,95268.00
2023-08-12T00:21:08.591Z,95268.00
2023-08-12T00:22:08.602Z,95268.00
2023-08-12T00:23:08.617Z,95266.00
2023-08-12T00:24:08.625Z,95264.00
2023-08-12T00:25:08.612Z,95264.00
2023-08-12T00:26:08.620Z,95266.00
2023-08-12T00:27:08.813Z,95266.00
2023-08-12T00:28:08.644Z,95266.00
2023-08-12T00:29:08.626Z,95266.00
2023-08-12T00:30:08.638Z,95264.00
2023-08-12T00:31:08.682Z,95266.00
2023-08-12T00:32:08.662Z,95266.00
2023-08-12T00:33:08.656Z,95266.00
2023-08-12T00:34:08.642Z,95266.00
2023-08-12T00:35:08.647Z,95264.00
2023-08-12T00:36:08.664Z,95264.00
2023-08-12T00:37:08.980Z,95264.00
2023-08-12T00:38:08.694Z,95264.00
2023-08-12T00:39:08.695Z,95262.00
2023-08-12T00:40:08.703Z,95264.00
2023-08-12T00:41:08.709Z,95262.00
2023-08-12T00:42:08.722Z,95258.00
2023-08-12T00:43:08.715Z,95260.00
2023-08-12T00:44:08.706Z,95262.00
2023-08-12T00:45:08.701Z,95262.00
2023-08-12T00:46:08.695Z,95260.00
2023-08-12T00:47:08.924Z,95258.00
2023-08-12T00:48:08.804Z,95260.00
2023-08-12T00:49:08.724Z,95258.00
2023-08-12T00:50:08.726Z,95256.00
2023-08-12T00:51:08.745Z,95254.00
2023-08-12T00:52:08.753Z,95256.00
2023-08-12T00:53:08.756Z,95254.00
2023-08-12T00:54:08.752Z,95256.00
2023-08-12T00:55:08.774Z,95254.00
2023-08-12T00:56:08.767Z,95256.00
2023-08-12T00:57:08.778Z,95254.00
2023-08-12T00:58:08.781Z,95254.00
2023-08-12T00:59:08.787Z,95254.00
2023-08-12T01:00:08.804Z,95256.00
2023-08-12T01:01:08.833Z,95254.00
2023-08-12T01:02:08.854Z,95254.00
2023-08-12T01:03:08.924Z,95256.00
2023-08-12T01:04:08.863Z,95252.00
2023-08-12T01:05:08.822Z,95254.00
2023-08-12T01:06:08.825Z,95252.00
2023-08-12T01:07:08.824Z,95252.00
2023-08-12T01:08:08.833Z,95250.00
2023-08-12T01:09:08.829Z,95252.00
2023-08-12T01:10:08.833Z,95248.00
2023-08-12T01:11:08.859Z,95248.00
2023-08-12T01:12:08.848Z,95250.00
2023-08-12T01:13:08.875Z,95250.00
2023-08-12T01:14:08.873Z,95252.00
2023-08-12T01:15:08.874Z,95250.00
2023-08-12T01:16:08.906Z,95248.00
2023-08-12T01:17:09.327Z,95248.00
2023-08-12T01:18:08.955Z,95248.00
2023-08-12T01:19:08.919Z,95248.00
2023-08-12T01:20:08.929Z,95248.00
2023-08-12T01:21:08.895Z,95248.00
2023-08-12T01:22:08.903Z,95247.00
2023-08-12T01:23:08.932Z,95250.00
2023-08-12T01:24:08.925Z,95247.00
2023-08-12T01:25:08.918Z,95247.00
2023-08-12T01:26:08.942Z,95247.00
2023-08-12T01:27:09.292Z,95245.00
2023-08-12T01:28:08.950Z,95247.00
2023-08-12T01:29:08.948Z,95250.00
2023-08-12T01:30:09.020Z,95248.00
2023-08-12T01:31:08.990Z,95250.00
2023-08-12T01:32:08.977Z,95250.00
2023-08-12T01:33:09.042Z,95248.00
2023-08-12T01:34:09.009Z,95248.00
2023-08-12T01:35:09.007Z,95248.00
2023-08-12T01:36:09.012Z,95247.00
2023-08-12T01:37:09.255Z,95247.00
2023-08-12T01:38:09.066Z,95247.00
2023-08-12T01:39:09.038Z,95247.00
2023-08-12T01:40:09.065Z,95245.00
2023-08-12T01:41:09.063Z,95245.00
2023-08-12T01:42:09.087Z,95245.00
2023-08-12T01:43:09.069Z,95245.00
2023-08-12T01:44:09.077Z,95243.00
2023-08-12T01:45:09.092Z,95239.00
2023-08-12T01:46:09.137Z,95243.00
2023-08-12T01:47:09.328Z,95237.00
2023-08-12T01:48:09.132Z,95239.00
2023-08-12T01:49:09.116Z,95239.00
2023-08-12T01:50:09.122Z,95239.00
2023-08-12T01:51:09.103Z,95237.00
2023-08-12T01:52:09.120Z,95235.00
2023-08-12T01:53:09.155Z,95235.00
2023-08-12T01:54:09.183Z,95233.00
2023-08-12T01:55:09.161Z,95233.00
2023-08-12T01:56:09.139Z,95233.00
2023-08-12T01:57:09.697Z,95233.00
2023-08-12T01:58:09.166Z,95233.00
2023-08-12T01:59:09.164Z,95235.00
2023-08-12T02:00:09.173Z,95235.00
2023-08-12T02:01:09.188Z,95231.00
2023-08-12T02:02:09.193Z,95233.00
2023-08-12T02:03:09.290Z,95233.00
2023-08-12T02:04:09.196Z,95233.00
2023-08-12T02:05:09.220Z,95229.00
2023-08-12T02:06:09.204Z,95231.00
2023-08-12T02:07:09.412Z,95231.00
2023-08-12T02:08:09.256Z,95231.00
2023-08-12T02:09:09.243Z,95227.00
2023-08-12T02:10:09.257Z,95227.00
2023-08-12T02:11:09.285Z,95227.00
2023-08-12T02:12:09.276Z,95225.00
2023-08-12T02:13:09.275Z,95225.00
2023-08-12T02:14:09.289Z,95223.00
2023-08-12T02:15:09.303Z,95221.00
2023-08-12T02:16:09.298Z,95221.00
2023-08-12T02:17:09.495Z,95217.00
2023-08-12T02:18:09.321Z,95217.00
2023-08-12T02:19:09.454Z,95219.00
2023-08-12T02:20:09.355Z,95219.00
2023-08-12T02:21:09.336Z,95217.00
2023-08-12T02:22:09.371Z,95217.00
2023-08-12T02:23:09.381Z,95217.00
2023-08-12T02:24:09.380Z,95217.00
2023-08-12T02:25:09.403Z,95219.00
2023-08-12T02:26:09.395Z,95219.00
2023-08-12T02:27:09.652Z,95221.00
2023-08-12T02:28:09.404Z,95221.00
2023-08-12T02:29:09.400Z,95221.00
2023-08-12T02:30:09.433Z,95219.00
2023-08-12T02:31:09.476Z,95223.00
2023-08-12T02:32:09.444Z,95219.00
2023-08-12T02:33:09.480Z,95221.00
2023-08-12T02:34:09.468Z,95219.00
2023-08-12T02:35:09.477Z,95217.00
2023-08-12T02:36:09.486Z,95217.00
2023-08-12T02:37:09.881Z,95217.00
2023-08-12T02:38:09.512Z,95217.00
2023-08-12T02:39:09.499Z,95215.00
2023-08-12T02:40:09.520Z,95209.00
2023-08-12T02:41:09.526Z,95209.00
2023-08-12T02:42:09.527Z,95209.00
2023-08-12T02:43:09.561Z,95211.00
2023-08-12T02:44:09.585Z,95209.00
2023-08-12T02:45:09.561Z,95217.00
2023-08-12T02:46:09.586Z,95217.00
2023-08-12T02:47:09.911Z,95217.00
2023-08-12T02:48:09.602Z,95211.00
2023-08-12T02:49:09.605Z,95213.00
2023-08-12T02:50:09.624Z,95209.00
2023-08-12T02:51:09.637Z,95209.00
2023-08-12T02:52:09.646Z,95207.00
2023-08-12T02:53:09.646Z,95205.00
2023-08-12T02:54:09.659Z,95211.00
2023-08-12T02:55:09.669Z,95209.00
2023-08-12T02:56:09.695Z,95207.00
2023-08-12T02:57:09.972Z,95209.00
2023-08-12T02:58:09.764Z,95207.00
2023-08-12T02:59:09.729Z,95209.00
2023-08-12T03:00:09.736Z,95211.00
2023-08-12T03:01:09.813Z,95207.00
2023-08-12T03:02:09.802Z,95205.00
2023-08-12T03:03:09.836Z,95205.00
2023-08-12T03:04:09.791Z,95207.00
2023-08-12T03:05:09.784Z,95207.00
2023-08-12T03:06:09.804Z,95205.00
2023-08-12T03:07:10.239Z,95205.00
2023-08-12T03:08:09.811Z,95203.00
2023-08-12T03:09:09.841Z,95203.00
2023-08-12T03:10:09.854Z,95203.00
2023-08-12T03:11:09.903Z,95203.00
2023-08-12T03:12:09.923Z,95207.00
2023-08-12T03:13:09.885Z,95207.00
2023-08-12T03:14:09.908Z,95205.00
2023-08-12T03:15:09.898Z,95207.00
2023-08-12T03:16:09.982Z,95207.00
2023-08-12T03:17:10.301Z,95205.00
2023-08-12T03:18:09.937Z,95205.00
2023-08-12T03:19:09.938Z,95205.00
2023-08-12T03:20:09.980Z,95205.00
2023-08-12T03:21:09.971Z,95207.00
2023-08-12T03:22:10.008Z,95203.00
2023-08-12T03:23:09.983Z,95205.00
2023-08-12T03:24:10.019Z,95207.00
2023-08-12T03:25:10.002Z,95203.00
2023-08-12T03:26:10.084Z,95203.00
2023-08-12T03:27:10.287Z,95200.00
2023-08-12T03:28:10.057Z,95201.00
2023-08-12T03:29:10.077Z,95200.00
2023-08-12T03:30:10.101Z,95200.00
2023-08-12T03:31:10.171Z,95196.00
2023-08-12T03:32:10.120Z,95198.00
2023-08-12T03:33:10.210Z,95198.00
2023-08-12T03:34:10.148Z,95194.00
2023-08-12T03:35:10.179Z,95196.00
2023-08-12T03:36:10.167Z,95196.00
2023-08-12T03:37:10.359Z,95200.00
2023-08-12T03:38:10.208Z,95198.00
2023-08-12T03:39:10.217Z,95196.00
2023-08-12T03:40:10.231Z,95196.00
2023-08-12T03:41:10.261Z,95198.00
2023-08-12T03:42:10.270Z,95198.00
2023-08-12T03:43:10.277Z,95200.00
2023-08-12T03:44:10.272Z,95198.00
2023-08-12T03:45:10.303Z,95200.00
2023-08-12T03:46:10.327Z,95200.00
2023-08-12T03:47:10.774Z,95196.00
2023-08-12T03:48:10.367Z,95196.00
2023-08-12T03:49:10.399Z,95198.00
2023-08-12T03:50:10.388Z,95198.00
2023-08-12T03:51:10.418Z,95198.00
2023-08-12T03:52:10.416Z,95196.00
2023-08-12T03:53:10.556Z,95198.00
2023-08-12T03:54:10.461Z,95194.00
2023-08-12T03:55:10.481Z,95194.00
2023-08-12T03:56:10.495Z,95196.00
2023-08-12T03:57:10.952Z,95196.00
2023-08-12T03:58:10.527Z,95196.00
2023-08-12T03:59:10.542Z,95194.00
2023-08-12T04:00:10.590Z,95194.00
2023-08-12T04:01:10.663Z,95194.00
2023-08-12T04:02:10.601Z,95194.00
2023-08-12T04:03:10.685Z,95194.00
2023-08-12T04:04:12.445Z,95192.00
2023-08-12T04:05:10.623Z,95192.00
2023-08-12T04:06:10.614Z,95192.00
2023-08-12T04:07:10.961Z,95194.00
2023-08-12T04:08:10.607Z,95192.00
2023-08-12T04:09:10.588Z,95194.00
2023-08-12T04:10:10.599Z,95194.00
2023-08-12T04:11:10.567Z,95196.00
2023-08-12T04:12:10.578Z,95196.00
2023-08-12T04:13:10.555Z,95198.00
2023-08-12T04:14:10.566Z,95198.00
2023-08-12T04:15:10.568Z,95196.00
2023-08-12T04:16:10.566Z,95198.00
2023-08-12T04:17:10.873Z,95198.00
2023-08-12T04:18:10.533Z,95198.00
2023-08-12T04:19:10.513Z,95198.00
2023-08-12T04:20:10.616Z,95200.00
2023-08-12T04:21:10.534Z,95200.00
2023-08-12T04:22:10.503Z,95200.00
2023-08-12T04:23:10.500Z,95200.00
2023-08-12T04:24:10.496Z,95201.00
2023-08-12T04:25:10.468Z,95198.00
2023-08-12T04:26:10.476Z,95198.00
2023-08-12T04:27:10.754Z,95196.00
2023-08-12T04:28:10.472Z,95196.00
2023-08-12T04:29:10.459Z,95198.00
2023-08-12T04:30:10.454Z,95196.00
2023-08-12T04:31:10.473Z,95196.00
2023-08-12T04:32:10.442Z,95194.00
2023-08-12T04:33:10.418Z,95196.00
2023-08-12T04:34:10.443Z,95194.00
2023-08-12T04:35:10.460Z,95198.00
2023-08-12T04:36:10.438Z,95196.00
2023-08-12T04:37:10.670Z,95200.00
2023-08-12T04:38:10.440Z,95198.00
2023-08-12T04:39:10.393Z,95200.00
2023-08-12T04:40:10.397Z,95200.00
2023-08-12T04:41:10.442Z,95205.00
2023-08-12T04:42:10.377Z,95205.00
2023-08-12T04:43:10.372Z,95207.00
2023-08-12T04:44:10.366Z,95209.00
2023-08-12T04:45:10.354Z,95207.00
2023-08-12T04:46:10.400Z,95209.00
2023-08-12T04:47:10.719Z,95207.00
2023-08-12T04:48:10.384Z,95203.00
2023-08-12T04:49:10.341Z,95209.00
2023-08-12T04:50:10.350Z,95205.00
2023-08-12T04:51:10.333Z,95205.00
2023-08-12T04:52:10.333Z,95205.00
2023-08-12T04:53:10.335Z,95203.00
2023-08-12T04:54:10.293Z,95205.00
2023-08-12T04:55:10.280Z,95205.00
2023-08-12T04:56:10.268Z,95203.00
2023-08-12T04:57:10.656Z,95201.00
2023-08-12T04:58:10.283Z,95201.00
2023-08-12T04:59:10.251Z,95200.00
2023-08-12T05:00:10.244Z,95201.00
2023-08-12T05:01:10.247Z,95200.00
2023-08-12T05:02:10.249Z,95201.00
2023-08-12T05:03:10.275Z,95200.00
2023-08-12T05:04:10.228Z,95200.00
2023-08-12T05:05:10.252Z,95201.00
2023-08-12T05:06:10.217Z,95200.00
2023-08-12T05:07:10.206Z,95198.00
2023-08-12T05:08:10.196Z,95200.00
2023-08-12T05:09:10.186Z,95200.00
2023-08-12T05:10:10.187Z,95200.00
2023-08-12T05:11:10.189Z,95200.00
2023-08-12T05:12:10.392Z,95200.00
2023-08-12T05:13:10.166Z,95203.00
2023-08-12T05:14:10.159Z,95205.00
2023-08-12T05:15:10.137Z,95200.00
2023-08-12T05:16:10.182Z,95200.00
2023-08-12T05:17:10.151Z,95200.00
2023-08-12T05:18:10.263Z,95201.00
2023-08-12T05:19:10.138Z,95205.00
2023-08-12T05:20:10.167Z,95200.00
2023-08-12T05:21:10.174Z,95198.00
2023-08-12T05:22:10.455Z,95203.00
2023-08-12T05:23:10.207Z,95201.00
2023-08-12T05:24:10.215Z,95200.00
2023-08-12T05:25:10.269Z,95201.00
2023-08-12T05:26:10.280Z,95200.00
2023-08-12T05:27:10.280Z,95198.00
2023-08-12T05:28:10.312Z,95200.00
2023-08-12T05:29:10.301Z,95200.00
2023-08-12T05:30:10.344Z,95198.00
2023-08-12T05:31:10.345Z,95200.00
2023-08-12T05:32:10.941Z,95200.00
2023-08-12T05:33:10.506Z,95201.00
2023-08-12T05:34:10.402Z,95200.00
2023-08-12T05:35:10.412Z,95198.00
2023-08-12T05:36:10.430Z,95198.00
2023-08-12T05:37:10.445Z,95200.00
2023-08-12T05:38:10.435Z,95200.00
2023-08-12T05:39:10.453Z,95198.00
2023-08-12T05:40:10.510Z,95198.00
2023-08-12T05:41:10.501Z,95200.00
2023-08-12T05:42:10.885Z,95200.00
2023-08-12T05:43:10.526Z,95200.00
2023-08-12T05:44:10.518Z,95200.00
2023-08-12T05:45:10.552Z,95200.00
2023-08-12T05:46:10.661Z,95198.00
2023-08-12T05:47:10.569Z,95198.00
2023-08-12T05:48:10.665Z,95198.00
2023-08-12T05:49:10.597Z,95198.00
2023-08-12T05:50:10.622Z,95200.00
2023-08-12T05:51:10.641Z,95200.00
2023-08-12T05:52:11.400Z,95200.00
2023-08-12T05:53:10.647Z,95198.00
2023-08-12T05:54:10.660Z,95200.00
2023-08-12T05:55:10.683Z,95201.00
2023-08-12T05:56:10.699Z,95198.00
2023-08-12T05:57:10.719Z,95198.00
2023-08-12T05:58:10.706Z,95196.00
2023-08-12T05:59:10.733Z,95196.00
2023-08-12T06:00:10.733Z,95198.00
2023-08-12T06:01:10.797Z,95198.00
2023-08-12T06:02:11.094Z,95198.00
2023-08-12T06:03:10.774Z,95198.00
2023-08-12T06:04:10.812Z,95198.00
2023-08-12T06:05:10.800Z,95194.00
2023-08-12T06:06:10.817Z,95196.00
2023-08-12T06:07:10.825Z,95194.00
2023-08-12T06:08:10.840Z,95194.00
2023-08-12T06:09:10.849Z,95192.00
2023-08-12T06:10:10.863Z,95194.00
2023-08-12T06:11:10.869Z,95194.00
2023-08-12T06:12:11.078Z,95190.00
2023-08-12T06:13:10.884Z,95190.00
2023-08-12T06:14:10.890Z,95190.00
2023-08-12T06:15:10.905Z,95190.00
2023-08-12T06:16:10.962Z,95194.00
2023-08-12T06:17:10.920Z,95194.00
2023-08-12T06:18:10.973Z,95190.00
2023-08-12T06:19:11.482Z,95190.00
2023-08-12T06:20:10.930Z,95188.00
2023-08-12T06:21:10.941Z,95186.00
2023-08-12T06:22:11.566Z,95186.00
2023-08-12T06:23:11.441Z,95184.00
2023-08-12T06:24:11.023Z,95186.00
2023-08-12T06:25:11.015Z,95186.00
2023-08-12T06:26:11.014Z,95180.00
2023-08-12T06:27:11.048Z,95180.00
2023-08-12T06:28:11.024Z,95180.00
2023-08-12T06:29:11.005Z,95180.00
2023-08-12T06:30:11.011Z,95178.00
2023-08-12T06:31:11.024Z,95176.00
2023-08-12T06:32:11.275Z,95176.00
2023-08-12T06:33:11.020Z,95178.00
2023-08-12T06:34:11.013Z,95176.00
2023-08-12T06:35:11.024Z,95174.00
2023-08-12T06:36:11.013Z,95172.00
2023-08-12T06:37:11.029Z,95170.00
2023-08-12T06:38:11.030Z,95170.00
2023-08-12T06:39:11.026Z,95166.00
2023-08-12T06:40:11.081Z,95162.00
2023-08-12T06:41:11.045Z,95162.00
2023-08-12T06:42:11.292Z,95164.00
2023-08-12T06:43:11.035Z,95158.00
2023-08-12T06:44:11.067Z,95162.00
2023-08-12T06:45:11.057Z,95162.00
2023-08-12T06:46:11.140Z,95162.00
2023-08-12T06:47:11.071Z,95164.00
2023-08-12T06:48:11.139Z,95162.00
2023-08-12T06:49:11.093Z,95164.00
2023-08-12T06:50:11.094Z,95162.00
2023-08-12T06:51:11.089Z,95160.00
2023-08-12T06:52:11.440Z,95158.00
2023-08-12T06:53:11.102Z,95158.00
2023-08-12T06:54:11.085Z,95152.00
2023-08-12T06:55:11.132Z,95148.00
2023-08-12T06:56:11.118Z,95150.00
2023-08-12T06:57:11.145Z,95150.00
2023-08-12T06:58:11.102Z,95146.00
2023-08-12T06:59:11.131Z,95146.00
2023-08-12T07:00:11.118Z,95139.00
2023-08-12T07:02:11.336Z,95135.00
2023-08-12T07:03:11.284Z,95137.00
2023-08-12T07:04:11.148Z,95133.00
2023-08-12T07:05:11.155Z,95135.00
2023-08-12T07:06:11.120Z,95133.00
2023-08-12T07:07:11.127Z,95131.00
2023-08-12T07:08:11.110Z,95129.00
2023-08-12T07:09:11.107Z,95129.00
2023-08-12T07:10:11.113Z,95129.00
2023-08-12T07:11:11.118Z,95129.00
2023-08-12T07:12:11.447Z,95127.00
2023-08-12T07:13:11.122Z,95127.00
2023-08-12T07:14:11.109Z,95127.00
2023-08-12T07:15:11.102Z,95123.00
2023-08-12T07:16:11.148Z,95123.00
2023-08-12T07:17:11.092Z,95123.00
2023-08-12T07:18:11.087Z,95123.00
2023-08-12T07:19:11.092Z,95121.00
2023-08-12T07:20:11.112Z,95121.00
2023-08-12T07:21:11.117Z,95121.00
2023-08-12T07:22:11.393Z,95123.00
2023-08-12T07:23:11.092Z,95123.00
2023-08-12T07:24:11.090Z,95123.00
2023-08-12T07:25:11.073Z,95123.00
2023-08-12T07:26:11.108Z,95123.00
2023-08-12T07:27:11.103Z,95123.00
2023-08-12T07:28:11.107Z,95121.00
2023-08-12T07:29:11.126Z,95121.00
2023-08-12T07:30:11.108Z,95121.00
2023-08-12T07:31:11.154Z,95117.00
2023-08-12T07:32:11.346Z,95119.00
2023-08-12T07:33:11.154Z,95117.00
2023-08-12T07:34:11.119Z,95117.00
2023-08-12T07:35:11.145Z,95115.00
2023-08-12T07:36:11.165Z,95115.00
2023-08-12T07:37:11.151Z,95113.00
2023-08-12T07:38:11.151Z,95113.00
2023-08-12T07:39:11.170Z,95113.00
2023-08-12T07:40:11.148Z,95109.00
2023-08-12T07:41:11.145Z,95109.00
2023-08-12T07:42:11.421Z,95113.00
2023-08-12T07:43:11.224Z,95111.00
2023-08-12T07:44:11.181Z,95113.00
2023-08-12T07:45:11.195Z,95113.00
2023-08-12T07:46:11.203Z,95107.00
2023-08-12T07:47:11.175Z,95111.00
2023-08-12T07:48:11.210Z,95111.00
2023-08-12T07:49:11.204Z,95111.00
2023-08-12T07:50:11.224Z,95107.00
2023-08-12T07:51:11.235Z,95107.00
2023-08-12T07:52:11.349Z,95109.00
2023-08-12T07:53:11.253Z,95107.00
2023-08-12T07:54:11.251Z,95107.00
2023-08-12T07:55:11.271Z,95107.00
2023-08-12T07:56:11.294Z,95107.00
2023-08-12T07:57:11.303Z,95107.00
2023-08-12T07:58:11.321Z,95107.00
2023-08-12T07:59:11.321Z,95107.00
2023-08-12T08:00:11.370Z,95105.00
2023-08-12T08:01:11.356Z,95103.00
2023-08-12T08:02:11.604Z,95101.00
2023-08-12T08:03:11.400Z,95101.00
2023-08-12T08:04:11.400Z,95101.00
2023-08-12T08:05:11.445Z,95101.00
2023-08-12T08:06:11.444Z,95100.00
2023-08-12T08:07:11.463Z,95098.00
2023-08-12T08:08:11.479Z,95098.00
2023-08-12T08:09:11.508Z,95098.00
2023-08-12T08:10:11.548Z,95100.00
2023-08-12T08:11:11.566Z,95098.00
2023-08-12T08:12:12.129Z,95094.00
2023-08-12T08:13:11.924Z,95096.00
2023-08-12T08:14:11.677Z,95094.00
2023-08-12T08:15:11.748Z,95092.00
2023-08-12T08:16:11.856Z,95090.00
2023-08-12T08:17:11.901Z,95088.00
2023-08-12T08:18:11.992Z,95090.00
2023-08-12T08:19:13.191Z,95084.00
2023-08-12T08:20:11.972Z,95084.00
2023-08-12T08:21:12.001Z,95082.00
2023-08-12T08:22:12.261Z,95082.00
2023-08-12T08:23:12.122Z,95082.00
2023-08-12T08:24:12.286Z,95082.00
2023-08-12T08:25:12.220Z,95082.00
2023-08-12T08:26:12.258Z,95082.00
2023-08-12T08:27:12.279Z,95082.00
2023-08-12T08:28:12.333Z,95080.00
2023-08-12T08:29:12.375Z,95082.00
2023-08-12T08:30:12.389Z,95080.00
2023-08-12T08:31:12.465Z,95078.00
2023-08-12T08:32:12.779Z,95082.00
2023-08-12T08:33:12.665Z,95078.00
2023-08-12T08:34:12.626Z,95078.00
2023-08-12T08:35:12.744Z,95080.00
2023-08-12T08:36:12.717Z,95078.00
2023-08-12T08:37:12.815Z,95080.00
2023-08-12T08:38:12.835Z,95078.00
2023-08-12T08:39:12.905Z,95080.00
2023-08-12T08:40:12.960Z,95080.00
2023-08-12T08:41:12.986Z,95080.00
2023-08-12T08:42:13.540Z,95078.00
2023-08-12T08:43:13.138Z,95080.00
2023-08-12T08:44:13.207Z,95080.00
2023-08-12T08:45:13.261Z,95078.00
2023-08-12T08:46:13.373Z,95078.00
2023-08-12T08:47:13.366Z,95078.00
2023-08-12T08:48:13.444Z,95078.00
2023-08-12T08:49:13.527Z,95076.00
2023-08-12T08:50:13.585Z,95082.00
2023-08-12T08:51:13.673Z,95082.00
2023-08-12T08:52:14.010Z,95080.00
2023-08-12T08:53:13.751Z,95080.00
2023-08-12T08:54:13.821Z,95080.00
2023-08-12T08:55:14.015Z,95080.00
2023-08-12T08:57:19.909Z,95080.00
2023-08-12T08:58:21.088Z,95080.00
2023-08-12T08:59:15.028Z,95080.00
2023-08-12T09:00:18.260Z,95080.00
2023-08-12T09:01:13.995Z,95076.00
2023-08-12T09:02:14.460Z,95078.00
2023-08-12T09:03:13.977Z,95080.00
2023-08-12T09:04:14.042Z,95078.00
2023-08-12T09:05:14.120Z,95076.00
2023-08-12T09:06:13.956Z,95078.00
2023-08-12T09:07:13.921Z,95076.00
2023-08-12T09:08:14.061Z,95076.00
2023-08-12T09:09:13.925Z,95072.00
2023-08-12T09:10:15.770Z,95070.00
2023-08-12T09:11:14.092Z,95070.00
2023-08-12T09:12:14.164Z,95070.00
2023-08-12T09:13:14.104Z,95064.00
2023-08-12T09:14:14.162Z,95064.00
2023-08-12T09:15:14.220Z,95064.00
2023-08-12T09:16:14.254Z,95064.00
2023-08-12T09:17:14.288Z,95060.00
2023-08-12T09:18:14.356Z,95060.00
2023-08-12T09:19:14.400Z,95064.00
2023-08-12T09:20:14.442Z,95060.00
2023-08-12T09:21:14.468Z,95058.00
2023-08-12T09:22:14.803Z,95058.00
2023-08-12T09:23:14.532Z,95058.00
2023-08-12T09:24:14.584Z,95054.00
2023-08-12T09:25:14.650Z,95048.00
2023-08-12T09:26:14.659Z,95050.00
2023-08-12T09:27:14.685Z,95050.00
2023-08-12T09:28:14.716Z,95048.00
2023-08-12T09:29:14.735Z,95048.00
2023-08-12T09:30:14.788Z,95046.00
2023-08-12T09:31:14.813Z,95041.00
2023-08-12T09:32:15.318Z,95041.00
2023-08-12T09:33:14.849Z,95041.00
2023-08-12T09:34:14.898Z,95045.00
2023-08-12T09:35:14.957Z,95041.00
2023-08-12T09:36:14.953Z,95041.00
2023-08-12T09:37:15.000Z,95037.00
2023-08-12T09:38:15.094Z,95037.00
2023-08-12T09:39:15.086Z,95035.00
2023-08-12T09:40:15.080Z,95035.00
2023-08-12T09:41:15.146Z,95035.00
2023-08-12T09:42:15.147Z,95035.00
2023-08-12T09:43:15.171Z,95035.00
2023-08-12T09:44:15.233Z,95033.00
2023-08-12T09:45:15.227Z,95035.00
2023-08-12T09:46:15.282Z,95035.00
2023-08-12T09:47:15.287Z,95033.00
2023-08-12T09:48:17.706Z,95033.00
2023-08-12T09:49:15.421Z,95035.00
2023-08-12T09:50:15.472Z,95033.00
2023-08-12T09:51:15.494Z,95035.00
2023-08-12T09:52:15.844Z,95033.00
2023-08-12T09:53:15.552Z,95031.00
2023-08-12T09:54:17.517Z,95033.00
2023-08-12T09:55:15.622Z,95031.00
2023-08-12T09:56:15.606Z,95029.00
2023-08-12T09:57:15.654Z,95029.00
2023-08-12T09:58:15.669Z,95031.00
2023-08-12T09:59:15.709Z,95027.00
2023-08-12T10:00:16.790Z,95027.00
2023-08-12T10:01:15.784Z,95025.00
2023-08-12T10:02:15.774Z,95025.00
2023-08-12T10:03:15.886Z,95021.00
2023-08-12T10:04:15.810Z,95021.00
2023-08-12T10:05:15.865Z,95017.00
2023-08-12T10:06:16.867Z,95015.00
2023-08-12T10:07:15.896Z,95017.00
2023-08-12T10:08:15.913Z,95017.00
2023-08-12T10:09:15.927Z,95015.00
2023-08-12T10:10:16.026Z,95015.00
2023-08-12T10:11:15.966Z,95015.00
2023-08-12T10:12:18.833Z,95009.00
2023-08-12T10:13:15.986Z,95009.00
2023-08-12T10:14:15.968Z,95011.00
2023-08-12T10:15:15.963Z,95007.00
2023-08-12T10:16:16.076Z,95007.00
2023-08-12T10:17:21.337Z,95007.00
2023-08-12T10:18:17.005Z,95003.00
2023-08-12T10:19:15.944Z,95003.00
2023-08-12T10:20:15.935Z,94999.00
2023-08-12T10:21:15.936Z,94996.00
2023-08-12T10:22:15.918Z,94994.00
2023-08-12T10:23:15.920Z,94994.00
2023-08-12T10:24:15.909Z,94994.00
2023-08-12T10:25:15.890Z,94992.00
2023-08-12T10:26:15.885Z,94990.00
2023-08-12T10:27:15.881Z,94990.00
2023-08-12T10:28:15.878Z,94992.00
2023-08-12T10:29:15.871Z,94992.00
2023-08-12T10:30:15.901Z,94984.00
2023-08-12T10:31:15.882Z,94988.00
2023-08-12T10:32:15.868Z,94986.00
2023-08-12T10:33:15.836Z,94988.00
2023-08-12T10:34:16.489Z,94986.00
2023-08-12T10:35:15.834Z,94982.00
2023-08-12T10:36:15.853Z,94982.00
2023-08-12T10:37:15.924Z,94980.00
2023-08-12T10:38:15.807Z,94978.00
2023-08-12T10:39:15.816Z,94978.00
2023-08-12T10:40:17.112Z,94974.00
2023-08-12T10:41:15.881Z,94978.00
2023-08-12T10:42:15.869Z,94978.00
2023-08-12T10:43:15.858Z,94972.00
2023-08-12T10:44:15.869Z,94970.00
2023-08-12T10:45:15.871Z,94968.00
2023-08-12T10:46:16.623Z,94968.00
2023-08-12T10:47:15.892Z,94964.00
2023-08-12T10:48:15.851Z,94964.00
2023-08-12T10:49:15.845Z,94960.00
2023-08-12T10:50:15.865Z,94960.00
2023-08-12T10:51:15.860Z,94958.00
2023-08-12T10:52:17.946Z,94954.00
2023-08-12T10:53:15.899Z,94952.00
2023-08-12T10:54:15.969Z,94952.00
2023-08-12T10:55:15.971Z,94946.00
2023-08-12T10:56:15.978Z,94948.00
2023-08-12T10:57:16.025Z,94943.00
2023-08-12T10:58:16.002Z,94943.00
2023-08-12T10:59:16.024Z,94941.00
2023-08-12T11:00:16.081Z,94937.00
2023-08-12T11:01:16.158Z,94937.00
2023-08-12T11:02:16.143Z,94935.00
2023-08-12T11:03:16.259Z,94935.00
2023-08-12T11:04:16.236Z,94931.00
2023-08-12T11:05:16.279Z,94933.00
2023-08-12T11:06:16.337Z,94929.00
2023-08-12T11:07:16.385Z,94927.00
2023-08-12T11:08:16.423Z,94931.00
2023-08-12T11:09:16.442Z,94929.00
2023-08-12T11:10:16.524Z,94927.00
2023-08-12T11:11:16.535Z,94927.00
2023-08-12T11:12:16.569Z,94929.00
2023-08-12T11:13:16.607Z,94927.00
2023-08-12T11:14:16.675Z,94927.00
2023-08-12T11:15:16.725Z,94925.00
2023-08-12T11:16:16.827Z,94925.00
2023-08-12T11:17:16.844Z,94921.00
2023-08-12T11:18:16.901Z,94923.00
2023-08-12T11:19:16.953Z,94921.00
2023-08-12T11:20:17.015Z,94919.00
2023-08-12T11:21:17.081Z,94917.00
2023-08-12T11:22:17.132Z,94919.00
2023-08-12T11:23:17.232Z,94917.00
2023-08-12T11:24:17.254Z,94915.00
2023-08-12T11:25:19.115Z,94915.00
2023-08-12T11:26:17.322Z,94913.00
2023-08-12T11:27:17.317Z,94913.00
2023-08-12T11:28:17.316Z,94911.00
2023-08-12T11:29:17.296Z,94909.00
2023-08-12T11:30:17.286Z,94909.00
2023-08-12T11:31:17.331Z,94907.00
2023-08-12T11:32:17.300Z,94909.00
2023-08-12T11:33:17.269Z,94907.00
2023-08-12T11:34:17.287Z,94909.00
2023-08-12T11:35:17.247Z,94907.00
2023-08-12T11:36:17.248Z,94907.00
2023-08-12T11:37:17.253Z,94907.00
2023-08-12T11:38:17.250Z,94907.00
2023-08-12T11:39:17.229Z,94909.00
2023-08-12T11:40:17.227Z,94905.00
2023-08-12T11:41:17.223Z,94903.00
2023-08-12T11:42:17.218Z,94903.00
2023-08-12T11:43:17.193Z,94905.00
2023-08-12T11:44:17.208Z,94901.00
2023-08-12T11:45:17.184Z,94903.00
2023-08-12T11:46:17.248Z,94901.00